Medallion — V7KM6 — position and weather

sailwx.info

Track history (hours):
 
Tides and Currents Weather Stations Pressure Air Temp Water Temp Dewpoint Dewpoint Depression Visibility Wind Speed Wind Dir Waves Ship Positions

Medallion

Last reported at 2017-Mar-22 13:17 UTC. Time now 2017-Mar-25 11:43 UTC.
Position N 26°43' W 080°03'.

Length 20 m; draft 7 m.

Type: Pleasure craft. MMSI: 538070246.

Date/timePositionNaut miles runAvg speedWind from/ knotsBaromVisibWave heightAir tempDewpointWater temp
2017-Mar-22 13:17N 26°43' W 080°03'0 0.0
2017-Mar-22 12:32N 26°43' W 080°03'15 0.7
2017-Mar-21 15:16N 26°28' W 080°02'7 9.5
2017-Mar-21 14:33N 26°21' W 080°03'9 9.2
2017-Mar-21 13:33N 26°12' W 080°04'7 6.9
2017-Mar-21 12:34N 26°06' W 080°07'1 0.5
2017-Mar-21 11:32N 26°06' W 080°07'0 0.0
2017-Mar-21 10:32N 26°06' W 080°07'0 0.0
2017-Mar-21 09:33N 26°06' W 080°07'0 0.0
2017-Mar-21 08:28N 26°06' W 080°07'0 0.0
2017-Mar-21 07:22N 26°06' W 080°07'0 0.0
2017-Mar-21 06:26N 26°06' W 080°07'0 0.0
2017-Mar-21 05:24N 26°06' W 080°07'0 0.0
2017-Mar-21 04:33N 26°06' W 080°07'0 0.0
2017-Mar-21 03:31N 26°06' W 080°07'0 0.0
2017-Mar-21 02:29N 26°06' W 080°07'0 0.0
2017-Mar-21 01:29N 26°06' W 080°07'0 0.0
2017-Mar-21 00:27N 26°06' W 080°07'0 0.0
2017-Mar-20 23:10N 26°06' W 080°07'0 0.0
2017-Mar-20 22:22N 26°06' W 080°07'0 0.0
2017-Mar-20 21:32N 26°06' W 080°07'0 0.0
2017-Mar-20 20:33N 26°06' W 080°07'0 0.0
2017-Mar-20 19:30N 26°06' W 080°07'0 0.0
2017-Mar-20 18:31N 26°06' W 080°07'0 0.0
2017-Mar-20 17:32N 26°06' W 080°07'0 0.0
2017-Mar-20 16:32N 26°06' W 080°07'0 0.0
2017-Mar-20 15:33N 26°06' W 080°07'0 0.0
2017-Mar-20 14:31N 26°06' W 080°07'0 0.0
2017-Mar-20 13:31N 26°06' W 080°07'0 0.0
2017-Mar-20 12:17N 26°06' W 080°07'0 0.0
2017-Mar-20 11:30N 26°06' W 080°07'0 0.0
2017-Mar-20 10:30N 26°06' W 080°07'0 0.0
2017-Mar-20 09:31N 26°06' W 080°07'0 0.0
2017-Mar-20 08:32N 26°06' W 080°07'0 0.0
2017-Mar-20 07:32N 26°06' W 080°07'0 0.0
2017-Mar-20 06:33N 26°06' W 080°07'0 0.0
2017-Mar-20 05:28N 26°06' W 080°07'0 0.0
2017-Mar-20 04:28N 26°06' W 080°07'0 0.0
2017-Mar-20 03:29N 26°06' W 080°07'0 0.0
2017-Mar-20 02:30N 26°06' W 080°07'0 0.0
2017-Mar-20 01:33N 26°06' W 080°07'0 0.0
2017-Mar-20 00:31N 26°06' W 080°07'0 0.0
2017-Mar-19 23:29N 26°06' W 080°07'0 0.0
2017-Mar-19 22:32N 26°06' W 080°07'0 0.0
2017-Mar-19 21:33N 26°06' W 080°07'0 0.0
2017-Mar-19 20:28N 26°06' W 080°07'0 0.0
2017-Mar-19 19:31N 26°06' W 080°07'0 0.0
2017-Mar-19 18:32N 26°06' W 080°07'0 0.0
2017-Mar-19 17:30N 26°06' W 080°07'0 0.0
2017-Mar-19 16:30N 26°06' W 080°07'0 0.0
2017-Mar-19 15:19N 26°06' W 080°07'0 0.0
2017-Mar-19 14:32N 26°06' W 080°07'0 0.0
2017-Mar-19 13:32N 26°06' W 080°07'0 0.0
2017-Mar-19 12:33N 26°06' W 080°07'0 0.0
2017-Mar-19 11:31N 26°06' W 080°07'0 0.0
2017-Mar-19 10:31N 26°06' W 080°07'0 0.0
2017-Mar-19 09:26N 26°06' W 080°07'0 0.0
2017-Mar-19 08:24N 26°06' W 080°07'0 0.0
2017-Mar-19 07:33N 26°06' W 080°07'0 0.0
2017-Mar-19 06:22N 26°06' W 080°07'0 0.0
2017-Mar-19 05:32N 26°06' W 080°07'0 0.0
2017-Mar-19 04:32N 26°06' W 080°07'0 0.0
2017-Mar-19 03:33N 26°06' W 080°07'0 0.0
2017-Mar-19 02:28N 26°06' W 080°07'0 0.0
2017-Mar-19 01:28N 26°06' W 080°07'0 0.0
2017-Mar-19 00:29N 26°06' W 080°07'0 0.0
2017-Mar-18 23:30N 26°06' W 080°07'0 0.0
2017-Mar-18 22:30N 26°06' W 080°07'0 0.0
2017-Mar-18 21:31N 26°06' W 080°07'0 0.0
2017-Mar-18 20:32N 26°06' W 080°07'0 0.0
2017-Mar-18 19:33N 26°06' W 080°07'0 0.0
2017-Mar-18 18:33N 26°06' W 080°07'0 0.0
2017-Mar-18 17:28N 26°06' W 080°07'0 0.0
2017-Mar-18 16:31N 26°06' W 080°07'0 0.0
2017-Mar-18 15:32N 26°06' W 080°07'0 0.0
2017-Mar-18 14:33N 26°06' W 080°07'0 0.0
2017-Mar-18 13:30N 26°06' W 080°07'0 0.0
2017-Mar-18 12:28N 26°06' W 080°07'0 0.0
2017-Mar-18 11:32N 26°06' W 080°07'0 0.0
2017-Mar-18 10:32N 26°06' W 080°07'0 0.0
2017-Mar-18 09:33N 26°06' W 080°07'0 0.0
2017-Mar-18 08:31N 26°06' W 080°07'0 0.0
2017-Mar-18 07:31N 26°06' W 080°07'0 0.0
2017-Mar-18 06:29N 26°06' W 080°07'0 0.0
2017-Mar-18 05:30N 26°06' W 080°07'0 0.0
2017-Mar-18 04:33N 26°06' W 080°07'0 0.0
2017-Mar-18 03:31N 26°06' W 080°07'0 0.0
2017-Mar-18 02:32N 26°06' W 080°07'0 0.0
2017-Mar-18 01:30N 26°06' W 080°07'0 0.0
2017-Mar-18 00:33N 26°06' W 080°07'0 0.0
2017-Mar-17 23:25N 26°06' W 080°07'0 0.0
2017-Mar-17 22:29N 26°06' W 080°07'0 0.0
2017-Mar-17 21:26N 26°06' W 080°07'0 0.0
2017-Mar-17 20:33N 26°06' W 080°07'0 0.0
2017-Mar-17 19:34N 26°06' W 080°07'0 0.0
2017-Mar-17 18:31N 26°06' W 080°07'0 0.0
2017-Mar-17 17:32N 26°06' W 080°07'0 0.0
2017-Mar-17 16:30N 26°06' W 080°07'0 0.0
2017-Mar-17 15:24N 26°06' W 080°07'0 0.0
2017-Mar-17 14:25N 26°06' W 080°07'0 0.0
2017-Mar-17 13:23N 26°06' W 080°07'0 0.0
2017-Mar-17 12:32N 26°06' W 080°07'0 0.0
2017-Mar-17 11:24N 26°06' W 080°07'0 0.0
2017-Mar-17 10:31N 26°06' W 080°07'0 0.0
2017-Mar-17 09:28N 26°06' W 080°07'0 0.0
2017-Mar-17 08:26N 26°06' W 080°07'0 0.0
2017-Mar-17 07:33N 26°06' W 080°07'0 0.0
2017-Mar-17 06:33N 26°06' W 080°07'0 0.0
2017-Mar-17 05:28N 26°06' W 080°07'0 0.0
2017-Mar-17 04:32N 26°06' W 080°07'0 0.0
2017-Mar-17 03:17N 26°06' W 080°07'0 0.0
2017-Mar-17 02:30N 26°06' W 080°07'0 0.0
2017-Mar-17 01:25N 26°06' W 080°07'0 0.0
2017-Mar-17 00:31N 26°06' W 080°07'0 0.0
2017-Mar-16 23:32N 26°06' W 080°07'0 0.0
2017-Mar-16 22:33N 26°06' W 080°07'0 0.0
2017-Mar-16 21:33N 26°06' W 080°07'0 0.0
2017-Mar-16 20:28N 26°06' W 080°07'0 0.0
2017-Mar-16 19:29N 26°06' W 080°07'0 0.0
2017-Mar-16 18:32N 26°06' W 080°07'0 0.0
2017-Mar-16 17:30N 26°06' W 080°07'0 0.0
2017-Mar-16 16:07N 26°06' W 080°07'0 0.0
2017-Mar-16 15:31N 26°06' W 080°07'0 0.0
2017-Mar-16 14:32N 26°06' W 080°07'0 0.0
2017-Mar-16 13:33N 26°06' W 080°07'0 0.0
2017-Mar-16 12:33N 26°06' W 080°07'0 0.0
2017-Mar-16 11:22N 26°06' W 080°07'0 0.0
2017-Mar-16 10:26N 26°06' W 080°07'0 0.0
2017-Mar-16 09:32N 26°06' W 080°07'0 0.0
2017-Mar-16 08:33N 26°06' W 080°07'0 0.0
2017-Mar-16 07:31N 26°06' W 080°07'0 0.0
2017-Mar-16 06:28N 26°06' W 080°07'0 0.0
2017-Mar-16 05:26N 26°06' W 080°07'0 0.0
2017-Mar-16 04:27N 26°06' W 080°07'0 0.0
2017-Mar-16 03:24N 26°06' W 080°07'0 0.0
2017-Mar-16 02:31N 26°06' W 080°07'0 0.0
2017-Mar-16 01:32N 26°06' W 080°07'0 0.0
2017-Mar-16 00:29N 26°06' W 080°07'0 0.0
2017-Mar-15 23:30N 26°06' W 080°07'0 0.0
2017-Mar-15 22:25N 26°06' W 080°07'0 0.0
2017-Mar-15 21:22N 26°06' W 080°07'0 0.0
2017-Mar-15 20:32N 26°06' W 080°07'0 0.0
2017-Mar-15 19:33N 26°06' W 080°07'0 0.0
2017-Mar-15 18:33N 26°06' W 080°07'0 0.0
2017-Mar-15 17:31N 26°06' W 080°07'0 0.0
2017-Mar-15 16:29N 26°06' W 080°07'0 0.0
2017-Mar-15 15:26N 26°06' W 080°07'0 0.0
2017-Mar-15 14:27N 26°06' W 080°07'0 0.0
2017-Mar-15 13:25N 26°06' W 080°07'0 0.0
2017-Mar-15 12:31N 26°06' W 080°07'0 0.0
2017-Mar-15 11:32N 26°06' W 080°07'0 0.0
2017-Mar-15 10:27N 26°06' W 080°07'0 0.0
2017-Mar-15 09:30N 26°06' W 080°07'0 0.0
2017-Mar-15 08:25N 26°06' W 080°07'0 0.0
2017-Mar-15 07:26N 26°06' W 080°07'0 0.0
2017-Mar-15 06:32N 26°06' W 080°07'0 0.0
2017-Mar-15 05:30N 26°06' W 080°07'0 0.0
2017-Mar-15 04:31N 26°06' W 080°07'0 0.0
2017-Mar-15 03:31N 26°06' W 080°07'0 0.0
2017-Mar-15 02:29N 26°06' W 080°07'0 0.0
2017-Mar-15 01:27N 26°06' W 080°07'0 0.0
2017-Mar-15 00:33N 26°06' W 080°07'0 0.0
2017-Mar-14 23:22N 26°06' W 080°07'0 0.0
2017-Mar-14 22:17N 26°06' W 080°07'0 0.0
2017-Mar-14 21:32N 26°06' W 080°07'0 0.0
2017-Mar-14 20:30N 26°06' W 080°07'0 0.0
2017-Mar-14 19:25N 26°06' W 080°07'0 0.0
2017-Mar-14 18:25N 26°06' W 080°07'0 0.0
2017-Mar-14 17:20N 26°06' W 080°07'0 0.0
2017-Mar-14 16:33N 26°06' W 080°07'0 0.0
2017-Mar-14 15:33N 26°06' W 080°07'0 0.0
2017-Mar-14 14:31N 26°06' W 080°07'0 0.0
2017-Mar-14 13:29N 26°06' W 080°07'0 0.0
2017-Mar-14 12:24N 26°06' W 080°07'0 0.0
2017-Mar-14 11:27N 26°06' W 080°07'0 0.0
2017-Mar-14 10:25N 26°06' W 080°07'0 0.0
2017-Mar-14 09:31N 26°06' W 080°07'0 0.0
2017-Mar-14 08:20N 26°06' W 080°07'0 0.0
2017-Mar-14 07:30N 26°06' W 080°07'0 0.0
2017-Mar-14 06:30N 26°06' W 080°07'0 0.0
2017-Mar-14 05:28N 26°06' W 080°07'0 0.0
2017-Mar-14 04:26N 26°06' W 080°07'0 0.0
2017-Mar-14 03:32N 26°06' W 080°07'0 0.0
2017-Mar-14 02:30N 26°06' W 080°07'0 0.0
2017-Mar-14 01:31N 26°06' W 080°07'0 0.0
2017-Mar-14 00:28N 26°06' W 080°07'0 0.0
2017-Mar-13 23:26N 26°06' W 080°07'0 0.0
2017-Mar-13 22:27N 26°06' W 080°07'0 0.0
2017-Mar-13 21:33N 26°06' W 080°07'0 0.0
2017-Mar-13 20:31N 26°06' W 080°07'0 0.0
2017-Mar-13 19:29N 26°06' W 080°07'0 0.0
2017-Mar-13 18:32N 26°06' W 080°07'0 0.0
2017-Mar-13 17:30N 26°06' W 080°07'0 0.0
2017-Mar-13 16:28N 26°06' W 080°07'0 0.0
2017-Mar-13 15:26N 26°06' W 080°07'0 0.0
2017-Mar-13 14:32N 26°06' W 080°07'0 0.0
2017-Mar-13 13:33N 26°06' W 080°07'0 0.0
2017-Mar-13 12:33N 26°06' W 080°07'0 0.0
2017-Mar-13 11:31N 26°06' W 080°07'0 0.0
2017-Mar-13 10:29N 26°06' W 080°07'0 0.0
2017-Mar-13 09:27N 26°06' W 080°07'0 0.0
2017-Mar-13 08:33N 26°06' W 080°07'0 0.0
2017-Mar-13 07:22N 26°06' W 080°07'0 0.0
2017-Mar-13 06:31N 26°06' W 080°07'0 0.0
2017-Mar-13 05:32N 26°06' W 080°07'0 0.0
2017-Mar-13 04:30N 26°06' W 080°07'0 0.0
2017-Mar-13 03:25N 26°06' W 080°07'0 0.0
2017-Mar-13 02:25N 26°06' W 080°07'0 0.0
2017-Mar-13 01:26N 26°06' W 080°07'0 0.0
2017-Mar-13 00:32N 26°06' W 080°07'0 0.0
2017-Mar-12 23:33N 26°06' W 080°07'0 0.0
2017-Mar-12 22:31N 26°06' W 080°07'0 0.0
2017-Mar-12 21:32N 26°06' W 080°07'0 0.0
2017-Mar-12 20:29N 26°06' W 080°07'0 0.0
2017-Mar-12 19:27N 26°06' W 080°07'0 0.0
2017-Mar-12 18:22N 26°06' W 080°07'0 0.0
2017-Mar-12 17:31N 26°06' W 080°07'0 0.0
2017-Mar-12 16:32N 26°06' W 080°07'0 0.0
2017-Mar-12 15:30N 26°06' W 080°07'0 0.0
2017-Mar-12 14:15N 26°06' W 080°07'0 0.0
2017-Mar-12 13:28N 26°06' W 080°07'  
Track history (hours):
 
Tides and Currents Weather Stations Pressure Air Temp Water Temp Dewpoint Dewpoint Depression Visibility Wind Speed Wind Dir Waves Ship Positions

Medallion

Last reported at 2017-Mar-22 13:17 UTC. Time now 2017-Mar-25 11:43 UTC.
Position N 26°43' W 080°03'.

Length 20 m; draft 7 m.

Type: Pleasure craft. MMSI: 538070246.

Date/timePositionNaut miles runAvg speedWind from/ knotsBaromVisibWave heightAir tempDewpointWater temp
2017-Mar-22 13:17N 26°43' W 080°03'0 0.0
2017-Mar-22 12:32N 26°43' W 080°03'15 0.7
2017-Mar-21 15:16N 26°28' W 080°02'7 9.5
2017-Mar-21 14:33N 26°21' W 080°03'9 9.2
2017-Mar-21 13:33N 26°12' W 080°04'7 6.9
2017-Mar-21 12:34N 26°06' W 080°07'1 0.5
2017-Mar-21 11:32N 26°06' W 080°07'0 0.0
2017-Mar-21 10:32N 26°06' W 080°07'0 0.0
2017-Mar-21 09:33N 26°06' W 080°07'0 0.0
2017-Mar-21 08:28N 26°06' W 080°07'0 0.0
2017-Mar-21 07:22N 26°06' W 080°07'0 0.0
2017-Mar-21 06:26N 26°06' W 080°07'0 0.0
2017-Mar-21 05:24N 26°06' W 080°07'0 0.0
2017-Mar-21 04:33N 26°06' W 080°07'0 0.0
2017-Mar-21 03:31N 26°06' W 080°07'0 0.0
2017-Mar-21 02:29N 26°06' W 080°07'0 0.0
2017-Mar-21 01:29N 26°06' W 080°07'0 0.0
2017-Mar-21 00:27N 26°06' W 080°07'0 0.0
2017-Mar-20 23:10N 26°06' W 080°07'0 0.0
2017-Mar-20 22:22N 26°06' W 080°07'0 0.0
2017-Mar-20 21:32N 26°06' W 080°07'0 0.0
2017-Mar-20 20:33N 26°06' W 080°07'0 0.0
2017-Mar-20 19:30N 26°06' W 080°07'0 0.0
2017-Mar-20 18:31N 26°06' W 080°07'0 0.0
2017-Mar-20 17:32N 26°06' W 080°07'0 0.0
2017-Mar-20 16:32N 26°06' W 080°07'0 0.0
2017-Mar-20 15:33N 26°06' W 080°07'0 0.0
2017-Mar-20 14:31N 26°06' W 080°07'0 0.0
2017-Mar-20 13:31N 26°06' W 080°07'0 0.0
2017-Mar-20 12:17N 26°06' W 080°07'0 0.0
2017-Mar-20 11:30N 26°06' W 080°07'0 0.0
2017-Mar-20 10:30N 26°06' W 080°07'0 0.0
2017-Mar-20 09:31N 26°06' W 080°07'0 0.0
2017-Mar-20 08:32N 26°06' W 080°07'0 0.0
2017-Mar-20 07:32N 26°06' W 080°07'0 0.0
2017-Mar-20 06:33N 26°06' W 080°07'0 0.0
2017-Mar-20 05:28N 26°06' W 080°07'0 0.0
2017-Mar-20 04:28N 26°06' W 080°07'0 0.0
2017-Mar-20 03:29N 26°06' W 080°07'0 0.0
2017-Mar-20 02:30N 26°06' W 080°07'0 0.0
2017-Mar-20 01:33N 26°06' W 080°07'0 0.0
2017-Mar-20 00:31N 26°06' W 080°07'0 0.0
2017-Mar-19 23:29N 26°06' W 080°07'0 0.0
2017-Mar-19 22:32N 26°06' W 080°07'0 0.0
2017-Mar-19 21:33N 26°06' W 080°07'0 0.0
2017-Mar-19 20:28N 26°06' W 080°07'0 0.0
2017-Mar-19 19:31N 26°06' W 080°07'0 0.0
2017-Mar-19 18:32N 26°06' W 080°07'0 0.0
2017-Mar-19 17:30N 26°06' W 080°07'0 0.0
2017-Mar-19 16:30N 26°06' W 080°07'0 0.0
2017-Mar-19 15:19N 26°06' W 080°07'0 0.0
2017-Mar-19 14:32N 26°06' W 080°07'0 0.0
2017-Mar-19 13:32N 26°06' W 080°07'0 0.0
2017-Mar-19 12:33N 26°06' W 080°07'0 0.0
2017-Mar-19 11:31N 26°06' W 080°07'0 0.0
2017-Mar-19 10:31N 26°06' W 080°07'0 0.0
2017-Mar-19 09:26N 26°06' W 080°07'0 0.0
2017-Mar-19 08:24N 26°06' W 080°07'0 0.0
2017-Mar-19 07:33N 26°06' W 080°07'0 0.0
2017-Mar-19 06:22N 26°06' W 080°07'0 0.0
2017-Mar-19 05:32N 26°06' W 080°07'0 0.0
2017-Mar-19 04:32N 26°06' W 080°07'0 0.0
2017-Mar-19 03:33N 26°06' W 080°07'0 0.0
2017-Mar-19 02:28N 26°06' W 080°07'0 0.0
2017-Mar-19 01:28N 26°06' W 080°07'0 0.0
2017-Mar-19 00:29N 26°06' W 080°07'0 0.0
2017-Mar-18 23:30N 26°06' W 080°07'0 0.0
2017-Mar-18 22:30N 26°06' W 080°07'0 0.0
2017-Mar-18 21:31N 26°06' W 080°07'0 0.0
2017-Mar-18 20:32N 26°06' W 080°07'0 0.0
2017-Mar-18 19:33N 26°06' W 080°07'0 0.0
2017-Mar-18 18:33N 26°06' W 080°07'0 0.0
2017-Mar-18 17:28N 26°06' W 080°07'0 0.0
2017-Mar-18 16:31N 26°06' W 080°07'0 0.0
2017-Mar-18 15:32N 26°06' W 080°07'0 0.0
2017-Mar-18 14:33N 26°06' W 080°07'0 0.0
2017-Mar-18 13:30N 26°06' W 080°07'0 0.0
2017-Mar-18 12:28N 26°06' W 080°07'0 0.0
2017-Mar-18 11:32N 26°06' W 080°07'0 0.0
2017-Mar-18 10:32N 26°06' W 080°07'0 0.0
2017-Mar-18 09:33N 26°06' W 080°07'0 0.0
2017-Mar-18 08:31N 26°06' W 080°07'0 0.0
2017-Mar-18 07:31N 26°06' W 080°07'0 0.0
2017-Mar-18 06:29N 26°06' W 080°07'0 0.0
2017-Mar-18 05:30N 26°06' W 080°07'0 0.0
2017-Mar-18 04:33N 26°06' W 080°07'0 0.0
2017-Mar-18 03:31N 26°06' W 080°07'0 0.0
2017-Mar-18 02:32N 26°06' W 080°07'0 0.0
2017-Mar-18 01:30N 26°06' W 080°07'0 0.0
2017-Mar-18 00:33N 26°06' W 080°07'0 0.0
2017-Mar-17 23:25N 26°06' W 080°07'0 0.0
2017-Mar-17 22:29N 26°06' W 080°07'0 0.0
2017-Mar-17 21:26N 26°06' W 080°07'0 0.0
2017-Mar-17 20:33N 26°06' W 080°07'0 0.0
2017-Mar-17 19:34N 26°06' W 080°07'0 0.0
2017-Mar-17 18:31N 26°06' W 080°07'0 0.0
2017-Mar-17 17:32N 26°06' W 080°07'0 0.0
2017-Mar-17 16:30N 26°06' W 080°07'0 0.0
2017-Mar-17 15:24N 26°06' W 080°07'0 0.0
2017-Mar-17 14:25N 26°06' W 080°07'0 0.0
2017-Mar-17 13:23N 26°06' W 080°07'0 0.0
2017-Mar-17 12:32N 26°06' W 080°07'0 0.0
2017-Mar-17 11:24N 26°06' W 080°07'0 0.0
2017-Mar-17 10:31N 26°06' W 080°07'0 0.0
2017-Mar-17 09:28N 26°06' W 080°07'0 0.0
2017-Mar-17 08:26N 26°06' W 080°07'0 0.0
2017-Mar-17 07:33N 26°06' W 080°07'0 0.0
2017-Mar-17 06:33N 26°06' W 080°07'0 0.0
2017-Mar-17 05:28N 26°06' W 080°07'0 0.0
2017-Mar-17 04:32N 26°06' W 080°07'0 0.0
2017-Mar-17 03:17N 26°06' W 080°07'0 0.0
2017-Mar-17 02:30N 26°06' W 080°07'0 0.0
2017-Mar-17 01:25N 26°06' W 080°07'0 0.0
2017-Mar-17 00:31N 26°06' W 080°07'0 0.0
2017-Mar-16 23:32N 26°06' W 080°07'0 0.0
2017-Mar-16 22:33N 26°06' W 080°07'0 0.0
2017-Mar-16 21:33N 26°06' W 080°07'0 0.0
2017-Mar-16 20:28N 26°06' W 080°07'0 0.0
2017-Mar-16 19:29N 26°06' W 080°07'0 0.0
2017-Mar-16 18:32N 26°06' W 080°07'0 0.0
2017-Mar-16 17:30N 26°06' W 080°07'0 0.0
2017-Mar-16 16:07N 26°06' W 080°07'0 0.0
2017-Mar-16 15:31N 26°06' W 080°07'0 0.0
2017-Mar-16 14:32N 26°06' W 080°07'0 0.0
2017-Mar-16 13:33N 26°06' W 080°07'0 0.0
2017-Mar-16 12:33N 26°06' W 080°07'0 0.0
2017-Mar-16 11:22N 26°06' W 080°07'0 0.0
2017-Mar-16 10:26N 26°06' W 080°07'0 0.0
2017-Mar-16 09:32N 26°06' W 080°07'0 0.0
2017-Mar-16 08:33N 26°06' W 080°07'0 0.0
2017-Mar-16 07:31N 26°06' W 080°07'0 0.0
2017-Mar-16 06:28N 26°06' W 080°07'0 0.0
2017-Mar-16 05:26N 26°06' W 080°07'0 0.0
2017-Mar-16 04:27N 26°06' W 080°07'0 0.0
2017-Mar-16 03:24N 26°06' W 080°07'0 0.0
2017-Mar-16 02:31N 26°06' W 080°07'0 0.0
2017-Mar-16 01:32N 26°06' W 080°07'0 0.0
2017-Mar-16 00:29N 26°06' W 080°07'0 0.0
2017-Mar-15 23:30N 26°06' W 080°07'0 0.0
2017-Mar-15 22:25N 26°06' W 080°07'0 0.0
2017-Mar-15 21:22N 26°06' W 080°07'0 0.0
2017-Mar-15 20:32N 26°06' W 080°07'0 0.0
2017-Mar-15 19:33N 26°06' W 080°07'0 0.0
2017-Mar-15 18:33N 26°06' W 080°07'0 0.0
2017-Mar-15 17:31N 26°06' W 080°07'0 0.0
2017-Mar-15 16:29N 26°06' W 080°07'0 0.0
2017-Mar-15 15:26N 26°06' W 080°07'0 0.0
2017-Mar-15 14:27N 26°06' W 080°07'0 0.0
2017-Mar-15 13:25N 26°06' W 080°07'0 0.0
2017-Mar-15 12:31N 26°06' W 080°07'0 0.0
2017-Mar-15 11:32N 26°06' W 080°07'0 0.0
2017-Mar-15 10:27N 26°06' W 080°07'0 0.0
2017-Mar-15 09:30N 26°06' W 080°07'0 0.0
2017-Mar-15 08:25N 26°06' W 080°07'0 0.0
2017-Mar-15 07:26N 26°06' W 080°07'0 0.0
2017-Mar-15 06:32N 26°06' W 080°07'0 0.0
2017-Mar-15 05:30N 26°06' W 080°07'0 0.0
2017-Mar-15 04:31N 26°06' W 080°07'0 0.0
2017-Mar-15 03:31N 26°06' W 080°07'0 0.0
2017-Mar-15 02:29N 26°06' W 080°07'0 0.0
2017-Mar-15 01:27N 26°06' W 080°07'0 0.0
2017-Mar-15 00:33N 26°06' W 080°07'0 0.0
2017-Mar-14 23:22N 26°06' W 080°07'0 0.0
2017-Mar-14 22:17N 26°06' W 080°07'0 0.0
2017-Mar-14 21:32N 26°06' W 080°07'0 0.0
2017-Mar-14 20:30N 26°06' W 080°07'0 0.0
2017-Mar-14 19:25N 26°06' W 080°07'0 0.0
2017-Mar-14 18:25N 26°06' W 080°07'0 0.0
2017-Mar-14 17:20N 26°06' W 080°07'0 0.0
2017-Mar-14 16:33N 26°06' W 080°07'0 0.0
2017-Mar-14 15:33N 26°06' W 080°07'0 0.0
2017-Mar-14 14:31N 26°06' W 080°07'0 0.0
2017-Mar-14 13:29N 26°06' W 080°07'0 0.0
2017-Mar-14 12:24N 26°06' W 080°07'0 0.0
2017-Mar-14 11:27N 26°06' W 080°07'0 0.0
2017-Mar-14 10:25N 26°06' W 080°07'0 0.0
2017-Mar-14 09:31N 26°06' W 080°07'0 0.0
2017-Mar-14 08:20N 26°06' W 080°07'0 0.0
2017-Mar-14 07:30N 26°06' W 080°07'0 0.0
2017-Mar-14 06:30N 26°06' W 080°07'0 0.0
2017-Mar-14 05:28N 26°06' W 080°07'0 0.0
2017-Mar-14 04:26N 26°06' W 080°07'0 0.0
2017-Mar-14 03:32N 26°06' W 080°07'0 0.0
2017-Mar-14 02:30N 26°06' W 080°07'0 0.0
2017-Mar-14 01:31N 26°06' W 080°07'0 0.0
2017-Mar-14 00:28N 26°06' W 080°07'0 0.0
2017-Mar-13 23:26N 26°06' W 080°07'0 0.0
2017-Mar-13 22:27N 26°06' W 080°07'0 0.0
2017-Mar-13 21:33N 26°06' W 080°07'0 0.0
2017-Mar-13 20:31N 26°06' W 080°07'0 0.0
2017-Mar-13 19:29N 26°06' W 080°07'0 0.0
2017-Mar-13 18:32N 26°06' W 080°07'0 0.0
2017-Mar-13 17:30N 26°06' W 080°07'0 0.0
2017-Mar-13 16:28N 26°06' W 080°07'0 0.0
2017-Mar-13 15:26N 26°06' W 080°07'0 0.0
2017-Mar-13 14:32N 26°06' W 080°07'0 0.0
2017-Mar-13 13:33N 26°06' W 080°07'0 0.0
2017-Mar-13 12:33N 26°06' W 080°07'0 0.0
2017-Mar-13 11:31N 26°06' W 080°07'0 0.0
2017-Mar-13 10:29N 26°06' W 080°07'0 0.0
2017-Mar-13 09:27N 26°06' W 080°07'0 0.0
2017-Mar-13 08:33N 26°06' W 080°07'0 0.0
2017-Mar-13 07:22N 26°06' W 080°07'0 0.0
2017-Mar-13 06:31N 26°06' W 080°07'0 0.0
2017-Mar-13 05:32N 26°06' W 080°07'0 0.0
2017-Mar-13 04:30N 26°06' W 080°07'0 0.0
2017-Mar-13 03:25N 26°06' W 080°07'0 0.0
2017-Mar-13 02:25N 26°06' W 080°07'0 0.0
2017-Mar-13 01:26N 26°06' W 080°07'0 0.0
2017-Mar-13 00:32N 26°06' W 080°07'0 0.0
2017-Mar-12 23:33N 26°06' W 080°07'0 0.0
2017-Mar-12 22:31N 26°06' W 080°07'0 0.0
2017-Mar-12 21:32N 26°06' W 080°07'0 0.0
2017-Mar-12 20:29N 26°06' W 080°07'0 0.0
2017-Mar-12 19:27N 26°06' W 080°07'0 0.0
2017-Mar-12 18:22N 26°06' W 080°07'0 0.0
2017-Mar-12 17:31N 26°06' W 080°07'0 0.0
2017-Mar-12 16:32N 26°06' W 080°07'0 0.0
2017-Mar-12 15:30N 26°06' W 080°07'0 0.0
2017-Mar-12 14:15N 26°06' W 080°07'0 0.0
2017-Mar-12 13:28N 26°06' W 080°07'  

Dump ship's entire track history